createdAt,value
2018-09-14T00:01:33.157Z,61.89
2018-09-14T00:04:00.603Z,62.45
2018-09-14T00:06:28.233Z,62.61
2018-09-14T00:08:54.867Z,61.27
2018-09-14T00:11:24.480Z,62.28
2018-09-14T00:13:53.337Z,61.71
2018-09-14T00:16:20.905Z,61.62
2018-09-14T00:18:48.521Z,61.49
2018-09-14T00:21:15.196Z,61.85
2018-09-14T00:23:41.869Z,61.24
2018-09-14T00:26:08.529Z,61.23
2018-09-14T00:28:36.121Z,60.98
2018-09-14T00:31:03.741Z,61.33
2018-09-14T00:33:30.624Z,61.25
2018-09-14T00:35:58.192Z,61.97
2018-09-14T00:38:25.925Z,61.96
2018-09-14T00:40:53.911Z,61.92
2018-09-14T00:43:20.554Z,62.29
2018-09-14T00:45:47.253Z,61.49
2018-09-14T00:48:14.756Z,61.42
2018-09-14T00:50:42.338Z,61.57
2018-09-14T00:53:09.005Z,61.82
2018-09-14T00:55:35.760Z,61.20
2018-09-14T00:58:02.397Z,61.57
2018-09-14T01:00:29.064Z,61.92
2018-09-14T01:02:56.563Z,61.13
2018-09-14T01:05:24.333Z,61.97
2018-09-14T01:07:52.809Z,61.77
2018-09-14T01:10:19.433Z,61.01
2018-09-14T01:12:46.077Z,60.63
2018-09-14T01:15:12.767Z,61.79
2018-09-14T01:17:39.392Z,61.10
2018-09-14T01:20:06.100Z,61.00
2018-09-14T01:22:32.720Z,60.25
2018-09-14T01:24:59.376Z,60.63
2018-09-14T01:27:26.033Z,60.70
2018-09-14T01:29:53.447Z,60.82
2018-09-14T01:32:20.146Z,60.59
2018-09-14T01:34:46.787Z,60.74
2018-09-14T01:37:13.448Z,60.76
2018-09-14T01:39:40.081Z,61.79
2018-09-14T01:42:06.710Z,61.03
2018-09-14T01:44:34.365Z,61.95
2018-09-14T01:47:02.044Z,61.66
2018-09-14T01:49:29.605Z,61.07
2018-09-14T01:51:56.245Z,60.67
2018-09-14T01:54:25.196Z,61.21
2018-09-14T01:56:53.479Z,60.97
2018-09-14T01:59:20.124Z,60.89
2018-09-14T02:01:47.578Z,60.78
2018-09-14T02:04:15.237Z,60.24
2018-09-14T02:06:41.916Z,60.29
2018-09-14T02:09:09.356Z,60.58
2018-09-14T02:11:36.868Z,59.85
2018-09-14T02:14:04.532Z,59.43
2018-09-14T02:16:32.220Z,60.17
2018-09-14T02:18:58.848Z,60.92
2018-09-14T02:21:25.545Z,59.87
2018-09-14T02:23:52.983Z,60.15
2018-09-14T02:26:20.418Z,60.64
2018-09-14T02:28:47.816Z,60.94
2018-09-14T02:31:15.481Z,61.05
2018-09-14T02:33:42.568Z,60.42
2018-09-14T02:36:09.269Z,60.39
2018-09-14T02:38:35.900Z,61.22
2018-09-14T02:41:03.365Z,60.97
2018-09-14T02:43:30.001Z,60.70
2018-09-14T02:45:58.596Z,60.04
2018-09-14T02:48:26.269Z,60.14
2018-09-14T02:50:56.217Z,60.78
2018-09-14T02:53:25.198Z,59.82
2018-09-14T02:55:54.206Z,60.02
2018-09-14T02:58:23.102Z,60.02
2018-09-14T03:00:50.933Z,59.93
2018-09-14T03:03:18.628Z,60.09
2018-09-14T03:05:45.260Z,60.81
2018-09-14T03:08:12.777Z,59.80
2018-09-14T03:10:39.428Z,59.94
2018-09-14T03:13:07.019Z,60.36
2018-09-14T03:15:33.730Z,60.23
2018-09-14T03:18:00.384Z,60.04
2018-09-14T03:20:27.906Z,60.55
2018-09-14T03:22:55.558Z,60.70
2018-09-14T03:25:23.451Z,60.95
2018-09-14T03:27:51.004Z,61.06
2018-09-14T03:30:17.735Z,61.21
2018-09-14T03:32:45.217Z,60.92
2018-09-14T03:35:12.728Z,60.22
2018-09-14T03:37:39.357Z,60.12
2018-09-14T03:40:06.043Z,60.65
2018-09-14T03:42:33.620Z,59.90
2018-09-14T03:45:01.099Z,60.76
2018-09-14T03:47:28.632Z,59.82
2018-09-14T03:49:56.201Z,60.11
2018-09-14T03:52:23.545Z,59.99
2018-09-14T03:54:51.016Z,59.59
2018-09-14T03:57:18.567Z,60.41
2018-09-14T03:59:46.090Z,60.43
2018-09-14T04:02:13.649Z,60.62
2018-09-14T04:04:41.074Z,59.59
2018-09-14T04:07:08.684Z,59.74
2018-09-14T04:09:35.403Z,60.54
2018-09-14T04:12:03.011Z,60.34
2018-09-14T04:14:30.548Z,59.62
2018-09-14T04:16:58.089Z,60.07
2018-09-14T04:19:25.800Z,60.49
2018-09-14T04:21:54.495Z,60.46
2018-09-14T04:24:21.201Z,60.50
2018-09-14T04:26:48.682Z,60.24
2018-09-14T04:29:15.399Z,60.41
2018-09-14T04:31:42.036Z,59.64
2018-09-14T04:34:09.465Z,60.13
2018-09-14T04:36:37.049Z,60.80
2018-09-14T04:39:06.265Z,60.61
2018-09-14T04:41:33.917Z,61.41
2018-09-14T04:44:00.572Z,60.58
2018-09-14T04:46:28.197Z,61.28
2018-09-14T04:48:55.900Z,60.70
2018-09-14T04:51:24.485Z,61.36
2018-09-14T04:53:53.043Z,60.83
2018-09-14T04:56:20.640Z,60.14
2018-09-14T04:58:48.347Z,60.75
2018-09-14T05:01:14.977Z,59.66
2018-09-14T05:03:41.660Z,60.65
2018-09-14T05:06:08.473Z,59.65
2018-09-14T05:08:35.100Z,59.59
2018-09-14T05:11:01.740Z,59.99
2018-09-14T05:13:28.388Z,60.99
2018-09-14T05:15:58.698Z,60.05
2018-09-14T05:18:25.436Z,60.85
2018-09-14T05:20:53.143Z,60.03
2018-09-14T05:23:20.869Z,60.08
2018-09-14T05:25:48.535Z,60.53
2018-09-14T05:28:16.311Z,59.90
2018-09-14T05:30:43.832Z,60.77
2018-09-14T05:33:10.493Z,60.35
2018-09-14T05:35:38.150Z,60.34
2018-09-14T05:38:05.870Z,60.46
2018-09-14T05:40:33.558Z,60.13
2018-09-14T05:43:00.229Z,60.22
2018-09-14T05:45:26.876Z,60.02
2018-09-14T05:47:54.342Z,60.75
2018-09-14T05:50:21.004Z,60.60
2018-09-14T05:52:48.604Z,61.41
2018-09-14T05:55:15.280Z,60.45
2018-09-14T05:57:41.928Z,60.25
2018-09-14T06:00:08.578Z,60.74
2018-09-14T06:02:35.219Z,60.53
2018-09-14T06:05:02.937Z,61.01
2018-09-14T06:07:29.663Z,60.57
2018-09-14T06:09:56.348Z,60.69
2018-09-14T06:12:25.231Z,60.77
2018-09-14T06:14:52.550Z,61.47
2018-09-14T06:17:19.362Z,61.05
2018-09-14T06:19:46.009Z,61.46
2018-09-14T06:22:12.653Z,61.41
2018-09-14T06:24:39.328Z,61.15
2018-09-14T06:27:06.856Z,60.85
2018-09-14T06:29:34.501Z,60.73
2018-09-14T06:32:01.181Z,61.27
2018-09-14T06:34:27.832Z,60.92
2018-09-14T06:36:55.125Z,60.73
2018-09-14T06:39:23.520Z,60.54
2018-09-14T06:41:50.185Z,60.60
2018-09-14T06:44:23.174Z,61.18
2018-09-14T06:46:49.909Z,61.30
2018-09-14T06:49:18.509Z,61.06
2018-09-14T06:51:46.540Z,61.32
2018-09-14T06:54:14.313Z,60.47
2018-09-14T06:56:41.148Z,60.94
2018-09-14T06:59:08.035Z,60.12
2018-09-14T07:01:34.716Z,60.86
2018-09-14T07:04:01.430Z,61.79
2018-09-14T07:06:29.270Z,62.03
2018-09-14T07:08:58.161Z,61.26
2018-09-14T07:11:24.882Z,62.15
2018-09-14T07:13:54.842Z,59.82
2018-09-14T07:16:21.552Z,61.72
2018-09-14T07:18:48.339Z,61.32
2018-09-14T07:21:15.876Z,60.64
2018-09-14T07:23:42.588Z,60.52
2018-09-14T07:26:09.981Z,59.98
2018-09-14T07:28:37.551Z,59.07
2018-09-14T07:31:05.299Z,60.79
2018-09-14T07:33:31.977Z,60.41
2018-09-14T07:35:59.626Z,60.95
2018-09-14T07:38:26.332Z,61.73
2018-09-14T07:40:55.844Z,60.05
2018-09-14T07:43:26.373Z,60.15
2018-09-14T07:45:54.483Z,60.67
2018-09-14T07:48:21.215Z,60.33
2018-09-14T07:50:47.840Z,61.63
2018-09-14T07:53:15.325Z,60.40
2018-09-14T07:55:42.816Z,59.30
2018-09-14T07:58:10.408Z,60.83
2018-09-14T08:00:38.084Z,60.39
2018-09-14T08:03:04.781Z,61.28
2018-09-14T08:05:32.373Z,60.51
2018-09-14T08:07:59.037Z,61.37
2018-09-14T08:10:26.736Z,60.77
2018-09-14T08:12:54.929Z,59.79
2018-09-14T08:15:21.700Z,59.76
2018-09-14T08:17:48.564Z,61.07
2018-09-14T08:20:15.328Z,59.90
2018-09-14T08:22:41.953Z,60.86
2018-09-14T08:25:08.616Z,59.30
2018-09-14T08:27:35.328Z,59.78
2018-09-14T08:30:01.965Z,60.63
2018-09-14T08:32:28.677Z,61.03
2018-09-14T08:34:55.332Z,60.50
2018-09-14T08:37:23.152Z,60.87
2018-09-14T08:39:50.024Z,61.57
2018-09-14T08:42:17.584Z,60.80
2018-09-14T08:44:44.268Z,60.58
2018-09-14T08:47:10.915Z,61.10
2018-09-14T08:49:37.609Z,60.89
2018-09-14T08:52:04.401Z,61.10
2018-09-14T08:54:31.083Z,61.03
2018-09-14T08:56:57.853Z,61.49
2018-09-14T08:59:24.568Z,59.98
2018-09-14T09:01:53.717Z,60.60
2018-09-14T09:04:20.548Z,61.08
2018-09-14T09:06:47.206Z,59.60
2018-09-14T09:09:14.783Z,61.38
2018-09-14T09:11:42.409Z,61.24
2018-09-14T09:14:09.064Z,59.75
2018-09-14T09:16:37.309Z,61.81
2018-09-14T09:19:04.877Z,61.40
2018-09-14T09:21:31.525Z,61.61
2018-09-14T09:23:58.749Z,61.76
2018-09-14T09:26:26.446Z,61.13
2018-09-14T09:28:55.710Z,61.19
2018-09-14T09:31:24.033Z,60.59
2018-09-14T09:33:51.093Z,61.25
2018-09-14T09:36:17.800Z,60.99
2018-09-14T09:38:44.485Z,61.76
2018-09-14T09:41:11.447Z,61.64
2018-09-14T09:43:38.340Z,61.04
2018-09-14T09:46:04.896Z,61.57
2018-09-14T09:48:31.542Z,61.47
2018-09-14T09:50:59.107Z,61.14
2018-09-14T09:53:25.745Z,60.67
2018-09-14T09:55:53.305Z,60.61
2018-09-14T09:58:21.037Z,61.72
2018-09-14T10:00:53.430Z,61.79
2018-09-14T10:03:25.822Z,61.46
2018-09-14T10:05:56.627Z,61.64
2018-09-14T10:08:24.259Z,61.42
2018-09-14T10:10:50.909Z,61.53
2018-09-14T10:13:18.436Z,61.54
2018-09-14T10:15:45.124Z,61.91
2018-09-14T10:18:11.904Z,61.95
2018-09-14T10:20:39.552Z,61.33
2018-09-14T10:23:06.178Z,61.34
2018-09-14T10:25:32.934Z,62.07
2018-09-14T10:27:59.697Z,61.57
2018-09-14T10:30:26.449Z,61.61
2018-09-14T10:32:54.526Z,61.57
2018-09-14T10:35:21.185Z,61.64
2018-09-14T10:37:47.999Z,61.42
2018-09-14T10:40:15.658Z,61.24
2018-09-14T10:42:42.423Z,61.05
2018-09-14T10:45:09.053Z,61.85
2018-09-14T10:47:35.701Z,60.99
2018-09-14T10:50:02.446Z,61.74
2018-09-14T10:52:30.040Z,61.69
2018-09-14T10:54:57.525Z,61.99
2018-09-14T10:57:24.448Z,62.14
2018-09-14T10:59:51.108Z,61.58
2018-09-14T11:02:18.740Z,62.05
2018-09-14T11:04:45.433Z,61.99
2018-09-14T11:07:12.084Z,62.02
2018-09-14T11:09:38.751Z,61.56
2018-09-14T11:12:05.734Z,61.38
2018-09-14T11:14:32.575Z,61.85
2018-09-14T11:16:59.232Z,62.12
2018-09-14T11:19:25.876Z,61.47
2018-09-14T11:21:53.225Z,61.24
2018-09-14T11:24:20.061Z,61.90
2018-09-14T11:26:47.518Z,61.40
2018-09-14T11:29:14.145Z,61.98
2018-09-14T11:31:41.754Z,61.90
2018-09-14T11:34:08.417Z,61.22
2018-09-14T11:36:35.950Z,62.20
2018-09-14T11:39:02.954Z,62.15
2018-09-14T11:41:29.606Z,61.82
2018-09-14T11:43:56.272Z,61.64
2018-09-14T11:46:23.873Z,61.40
2018-09-14T11:48:51.020Z,62.13
2018-09-14T11:51:17.665Z,61.98
2018-09-14T11:53:44.314Z,61.96
2018-09-14T11:56:11.119Z,62.17
2018-09-14T11:58:37.872Z,61.48
2018-09-14T12:01:05.507Z,61.84
2018-09-14T12:03:32.200Z,61.78
2018-09-14T12:06:00.309Z,62.21
2018-09-14T12:08:27.095Z,61.56
2018-09-14T12:10:55.122Z,61.52
2018-09-14T12:13:21.832Z,61.56
2018-09-14T12:15:49.481Z,61.37
2018-09-14T12:18:16.217Z,62.09
2018-09-14T12:20:42.863Z,61.44
2018-09-14T12:23:10.428Z,62.20
2018-09-14T12:25:38.591Z,61.31
2018-09-14T12:28:06.273Z,61.49
2018-09-14T12:30:33.969Z,62.07
2018-09-14T12:33:00.660Z,61.49
2018-09-14T12:35:28.008Z,61.45
2018-09-14T12:37:54.673Z,62.23
2018-09-14T12:40:21.361Z,61.79
2018-09-14T12:42:48.006Z,61.26
2018-09-14T12:45:14.685Z,61.84
2018-09-14T12:47:41.344Z,61.20
2018-09-14T12:50:08.028Z,61.51
2018-09-14T12:52:35.516Z,61.55
2018-09-14T12:55:02.218Z,61.46
2018-09-14T12:57:29.676Z,61.49
2018-09-14T12:59:56.392Z,61.39
2018-09-14T13:02:24.465Z,62.29
2018-09-14T13:04:52.753Z,62.14
2018-09-14T13:07:20.025Z,62.00
2018-09-14T13:09:46.709Z,61.22
2018-09-14T13:12:13.798Z,61.44
2018-09-14T13:14:40.540Z,61.43
2018-09-14T13:17:10.940Z,62.26
2018-09-14T13:19:37.587Z,61.37
2018-09-14T13:22:04.230Z,61.54
2018-09-14T13:24:31.038Z,61.73
2018-09-14T13:26:58.651Z,61.55
2018-09-14T13:29:26.439Z,61.98
2018-09-14T13:31:54.031Z,61.46
2018-09-14T13:34:21.460Z,61.60
2018-09-14T13:36:48.109Z,62.42
2018-09-14T13:39:15.741Z,62.18
2018-09-14T13:41:42.396Z,61.56
2018-09-14T13:44:09.040Z,61.95
2018-09-14T13:46:35.997Z,60.81
2018-09-14T13:49:03.630Z,60.92
2018-09-14T13:51:31.304Z,59.96
2018-09-14T13:53:58.924Z,58.48
2018-09-14T13:56:25.596Z,58.65
2018-09-14T13:58:53.541Z,58.98
2018-09-14T14:01:20.508Z,58.21
2018-09-14T14:03:47.172Z,57.73
2018-09-14T14:06:14.581Z,57.52
2018-09-14T14:08:43.479Z,57.38
2018-09-14T14:11:11.182Z,58.02
2018-09-14T14:13:38.780Z,58.22
2018-09-14T14:16:05.468Z,57.56
2018-09-14T14:18:32.117Z,58.41
2018-09-14T14:20:58.845Z,59.13
2018-09-14T14:23:25.452Z,58.29
2018-09-14T14:25:53.055Z,59.02
2018-09-14T14:28:19.741Z,57.64
2018-09-14T14:30:47.345Z,58.95
2018-09-14T14:33:13.999Z,58.31
2018-09-14T14:35:40.650Z,58.85
2018-09-14T14:38:07.296Z,59.09
2018-09-14T14:40:33.949Z,58.53
2018-09-14T14:43:00.625Z,58.81
2018-09-14T14:45:27.342Z,60.06
2018-09-14T14:47:55.015Z,59.29
2018-09-14T14:50:23.512Z,59.65
2018-09-14T14:52:51.209Z,59.30
2018-09-14T14:55:18.900Z,59.40
2018-09-14T14:57:46.477Z,59.38
2018-09-14T15:00:14.073Z,59.52
2018-09-14T15:02:41.715Z,59.27
2018-09-14T15:05:09.325Z,59.70
2018-09-14T15:07:35.973Z,59.84
2018-09-14T15:10:03.708Z,60.76
2018-09-14T15:12:30.375Z,59.59
2018-09-14T15:14:57.917Z,59.79
2018-09-14T15:17:25.376Z,59.81
2018-09-14T15:19:53.785Z,60.13
2018-09-14T15:22:21.389Z,60.22
2018-09-14T15:24:48.021Z,60.49
2018-09-14T15:27:14.946Z,60.08
2018-09-14T15:29:41.729Z,60.83
2018-09-14T15:32:08.442Z,60.69
2018-09-14T15:34:35.110Z,60.63
2018-09-14T15:37:02.792Z,60.93
2018-09-14T15:39:30.393Z,61.10
2018-09-14T15:41:58.044Z,60.38
2018-09-14T15:44:24.838Z,60.42
2018-09-14T15:46:51.616Z,60.40
2018-09-14T15:49:20.515Z,61.21
2018-09-14T15:51:48.181Z,60.38
2018-09-14T15:54:15.709Z,60.39
2018-09-14T15:56:43.349Z,60.46
2018-09-14T15:59:10.010Z,60.44
2018-09-14T16:01:37.693Z,61.16
2018-09-14T16:04:04.353Z,61.29
2018-09-14T16:06:31.937Z,61.12
2018-09-14T16:08:59.381Z,60.38
2018-09-14T16:11:26.057Z,60.56
2018-09-14T16:13:54.512Z,61.15
2018-09-14T16:16:21.196Z,61.00
2018-09-14T16:18:47.904Z,61.22
2018-09-14T16:21:14.601Z,60.95
2018-09-14T16:23:41.324Z,60.80
2018-09-14T16:26:08.817Z,61.37
2018-09-14T16:28:35.469Z,61.36
2018-09-14T16:31:02.113Z,61.11
2018-09-14T16:33:28.801Z,60.25
2018-09-14T16:35:56.972Z,60.38
2018-09-14T16:38:24.587Z,60.71
2018-09-14T16:40:51.260Z,60.32
2018-09-14T16:43:18.732Z,60.34
2018-09-14T16:45:46.225Z,60.51
2018-09-14T16:48:12.942Z,60.50
2018-09-14T16:50:40.560Z,61.03
2018-09-14T16:53:07.201Z,60.53
2018-09-14T16:55:33.848Z,61.08
2018-09-14T16:58:00.477Z,60.56
2018-09-14T17:00:27.141Z,60.62
2018-09-14T17:02:55.097Z,59.54
2018-09-14T17:05:21.774Z,60.94
2018-09-14T17:07:48.408Z,60.48
2018-09-14T17:10:15.077Z,59.65
2018-09-14T17:12:42.702Z,60.15
2018-09-14T17:15:10.234Z,60.50
2018-09-14T17:17:36.992Z,61.42
2018-09-14T17:20:03.727Z,60.72
2018-09-14T17:22:30.425Z,60.71
2018-09-14T17:24:57.076Z,60.58
2018-09-14T17:27:25.293Z,61.20
2018-09-14T17:29:52.995Z,61.23
2018-09-14T17:32:19.714Z,61.17
2018-09-14T17:34:46.372Z,61.24
2018-09-14T17:37:13.440Z,60.42
2018-09-14T17:39:40.085Z,60.84
2018-09-14T17:42:07.841Z,60.06
2018-09-14T17:44:34.559Z,60.37
2018-09-14T17:47:01.263Z,60.35
2018-09-14T17:49:28.997Z,61.29
2018-09-14T17:51:55.664Z,61.02
2018-09-14T17:54:23.665Z,59.60
2018-09-14T17:56:56.596Z,60.22
2018-09-14T17:59:24.199Z,60.62
2018-09-14T18:01:54.317Z,60.30
2018-09-14T18:04:21.947Z,60.61
2018-09-14T18:06:50.915Z,61.05
2018-09-14T18:09:17.645Z,60.73
2018-09-14T18:11:45.160Z,60.37
2018-09-14T18:16:56.672Z,60.32
2018-09-14T18:19:24.293Z,61.52
2018-09-14T18:21:51.895Z,61.02
2018-09-14T18:24:31.020Z,60.85
2018-09-14T18:27:00.381Z,61.59
2018-09-14T18:29:28.097Z,61.13
2018-09-14T18:31:55.985Z,60.39
2018-09-14T18:34:24.565Z,60.49
2018-09-14T18:36:51.930Z,61.90
2018-09-14T18:39:20.515Z,60.75
2018-09-14T18:41:55.351Z,60.98
2018-09-14T18:44:32.925Z,61.13
2018-09-14T18:47:13.134Z,60.87
2018-09-14T18:49:40.405Z,61.86
2018-09-14T18:52:07.153Z,60.81
2018-09-14T18:54:33.922Z,61.01
2018-09-14T18:57:00.721Z,61.44
2018-09-14T18:59:27.388Z,61.11
2018-09-14T19:02:01.865Z,61.28
2018-09-14T19:04:28.569Z,61.76
2018-09-14T19:06:56.204Z,61.35
2018-09-14T19:09:25.284Z,61.95
2018-09-14T19:11:53.968Z,61.48
2018-09-14T19:14:20.690Z,61.61
2018-09-14T19:16:48.282Z,62.28
2018-09-14T19:19:15.038Z,61.31
2018-09-14T19:21:42.703Z,61.28
2018-09-14T19:24:10.768Z,62.15
2018-09-14T19:26:38.320Z,60.90
2018-09-14T19:29:04.997Z,60.68
2018-09-14T19:31:32.501Z,60.66
2018-09-14T19:34:00.017Z,61.15
2018-09-14T19:36:26.993Z,61.05
2018-09-14T19:38:54.771Z,60.44
2018-09-14T19:41:23.964Z,61.03
2018-09-14T19:43:51.475Z,61.15
2018-09-14T19:46:18.172Z,60.05
2018-09-14T19:48:44.848Z,61.45
2018-09-14T19:51:12.539Z,61.35
2018-09-14T19:53:39.989Z,60.51
2018-09-14T19:56:07.710Z,60.54
2018-09-14T19:58:35.281Z,60.86
2018-09-14T20:01:01.961Z,60.46
2018-09-14T20:03:34.080Z,60.16
2018-09-14T20:06:00.716Z,60.75
2018-09-14T20:08:27.392Z,61.21
2018-09-14T20:10:55.157Z,61.52
2018-09-14T20:13:21.852Z,61.74
2018-09-14T20:15:48.722Z,61.42
2018-09-14T20:18:15.431Z,59.97
2018-09-14T20:20:53.130Z,60.20
2018-09-14T20:23:19.824Z,60.95
2018-09-14T20:25:46.772Z,59.92
2018-09-14T20:28:14.284Z,59.98
2018-09-14T20:30:41.833Z,59.59
2018-09-14T20:33:09.728Z,59.25
2018-09-14T20:35:36.446Z,60.86
2018-09-14T20:38:03.982Z,59.98
2018-09-14T20:40:30.643Z,61.04
2018-09-14T20:42:57.381Z,59.79
2018-09-14T20:45:24.590Z,60.69
2018-09-14T20:47:53.362Z,59.43
2018-09-14T20:50:20.024Z,60.45
2018-09-14T20:52:47.513Z,60.12
2018-09-14T20:55:14.983Z,59.95
2018-09-14T20:57:42.656Z,60.29
2018-09-14T21:00:09.347Z,60.03
2018-09-14T21:02:36.060Z,59.44
2018-09-14T21:05:02.718Z,59.90
2018-09-14T21:07:29.410Z,58.99
2018-09-14T21:09:56.120Z,59.44
2018-09-14T21:12:23.829Z,59.38
2018-09-14T21:14:50.556Z,59.97
2018-09-14T21:17:17.220Z,59.87
2018-09-14T21:19:44.816Z,59.21
2018-09-14T21:22:12.416Z,59.06
2018-09-14T21:24:39.077Z,59.40
2018-09-14T21:27:06.614Z,59.79
2018-09-14T21:29:33.306Z,59.71
2018-09-14T21:32:00.806Z,58.78
2018-09-14T21:34:28.408Z,59.75
2018-09-14T21:36:56.019Z,59.41
2018-09-14T21:39:24.557Z,59.14
2018-09-14T21:41:53.157Z,59.92
2018-09-14T21:44:20.732Z,59.56
2018-09-14T21:46:48.343Z,60.65
2018-09-14T21:49:15.984Z,61.07
2018-09-14T21:51:42.653Z,60.38
2018-09-14T21:54:09.321Z,60.88
2018-09-14T21:56:36.989Z,60.60
2018-09-14T21:59:04.643Z,60.94
2018-09-14T22:01:32.353Z,60.12
2018-09-14T22:04:00.813Z,60.53
2018-09-14T22:06:28.546Z,60.85
2018-09-14T22:08:56.548Z,60.21
2018-09-14T22:11:24.744Z,60.46
2018-09-14T22:13:51.687Z,60.82
2018-09-14T22:16:19.413Z,60.86
2018-09-14T22:18:47.041Z,60.52
2018-09-14T22:21:14.631Z,59.68
2018-09-14T22:23:41.280Z,60.20
2018-09-14T22:26:07.952Z,59.58
2018-09-14T22:28:34.689Z,60.39
2018-09-14T22:31:01.348Z,59.96
2018-09-14T22:33:29.027Z,59.33
2018-09-14T22:35:56.121Z,59.46
2018-09-14T22:38:23.816Z,59.75
2018-09-14T22:40:51.316Z,59.24
2018-09-14T22:43:18.881Z,59.62
2018-09-14T22:45:46.525Z,59.79
2018-09-14T22:48:13.233Z,59.80
2018-09-14T22:50:40.717Z,59.55
2018-09-14T22:53:07.372Z,59.52
2018-09-14T22:55:34.028Z,59.62
2018-09-14T22:58:00.684Z,60.01
2018-09-14T23:00:33.989Z,59.69
2018-09-14T23:03:01.474Z,59.87
2018-09-14T23:05:29.077Z,59.25
2018-09-14T23:07:55.740Z,59.66
2018-09-14T23:10:23.773Z,59.65
2018-09-14T23:12:50.432Z,59.57
2018-09-14T23:15:17.152Z,59.10
2018-09-14T23:17:43.832Z,59.95
2018-09-14T23:20:10.499Z,60.00
2018-09-14T23:22:37.180Z,59.44
2018-09-14T23:25:03.843Z,59.84
2018-09-14T23:27:30.492Z,60.28
2018-09-14T23:29:58.755Z,59.30
2018-09-14T23:32:26.481Z,59.41
2018-09-14T23:34:54.166Z,59.36
2018-09-14T23:37:21.840Z,59.52
2018-09-14T23:39:49.420Z,59.89
2018-09-14T23:42:16.908Z,59.79
2018-09-14T23:44:43.620Z,59.07
2018-09-14T23:47:11.216Z,59.59
2018-09-14T23:49:38.969Z,58.97
2018-09-14T23:52:06.611Z,59.83
2018-09-14T23:54:34.388Z,59.85
2018-09-14T23:57:01.057Z,59.73
2018-09-14T23:59:28.694Z,59.05
